createdAt,value
2023-07-20T00:04:50.289Z,16.00
2023-07-20T00:10:52.174Z,16.00
2023-07-20T00:16:58.744Z,16.00
2023-07-20T00:23:00.808Z,16.10
2023-07-20T00:29:02.722Z,16.20
2023-07-20T00:35:04.864Z,16.20
2023-07-20T00:41:06.771Z,16.20
2023-07-20T00:47:10.058Z,16.20
2023-07-20T00:53:12.064Z,16.10
2023-07-20T00:59:14.859Z,16.10
2023-07-20T01:05:19.592Z,16.10
2023-07-20T01:12:03.213Z,16.00
2023-07-20T01:18:05.783Z,16.10
2023-07-20T01:24:41.811Z,16.00
2023-07-20T01:30:43.642Z,16.00
2023-07-20T01:36:47.185Z,16.00
2023-07-20T01:42:49.300Z,15.90
2023-07-20T01:48:52.325Z,15.90
2023-07-20T01:54:54.237Z,15.80
2023-07-20T02:00:56.074Z,15.80
2023-07-20T02:06:57.895Z,15.80
2023-07-20T02:12:59.734Z,15.70
2023-07-20T02:19:01.558Z,15.80
2023-07-20T02:25:04.553Z,15.80
2023-07-20T02:31:06.501Z,15.80
2023-07-20T02:37:11.965Z,15.70
2023-07-20T02:43:14.232Z,15.70
2023-07-20T02:49:16.795Z,15.70
2023-07-20T02:55:19.155Z,15.60
2023-07-20T03:01:21.215Z,15.50
2023-07-20T03:07:23.575Z,15.40
2023-07-20T03:13:25.505Z,15.40
2023-07-20T03:19:27.569Z,15.50
2023-07-20T03:25:29.599Z,15.50
2023-07-20T03:31:31.564Z,15.50
2023-07-20T03:37:35.981Z,15.50
2023-07-20T03:43:37.839Z,15.60
2023-07-20T03:49:39.742Z,15.60
2023-07-20T03:55:45.565Z,15.60
2023-07-20T04:01:47.645Z,15.60
2023-07-20T04:07:49.618Z,15.60
2023-07-20T04:13:51.569Z,15.50
2023-07-20T04:19:53.440Z,15.50
2023-07-20T04:25:55.310Z,15.60
2023-07-20T04:31:57.814Z,15.60
2023-07-20T04:37:59.717Z,15.60
2023-07-20T04:44:02.103Z,15.50
2023-07-20T04:50:06.494Z,15.60
2023-07-20T04:56:09.572Z,15.60
2023-07-20T05:02:11.625Z,15.70
2023-07-20T05:08:13.960Z,15.90
2023-07-20T05:14:16.075Z,16.10
2023-07-20T05:20:18.437Z,16.20
2023-07-20T05:26:20.672Z,16.30
2023-07-20T05:32:22.699Z,16.30
2023-07-20T05:38:24.754Z,16.20
2023-07-20T05:44:26.622Z,16.20
2023-07-20T05:50:29.126Z,16.30
2023-07-20T05:56:31.305Z,16.50
2023-07-20T06:02:34.440Z,16.60
2023-07-20T06:08:36.436Z,16.60
2023-07-20T06:14:38.678Z,16.60
2023-07-20T06:20:40.708Z,16.60
2023-07-20T06:26:42.737Z,16.50
2023-07-20T06:32:44.773Z,16.60
2023-07-20T06:40:32.929Z,16.60
2023-07-20T06:45:09.776Z,16.40
2023-07-20T06:51:11.698Z,16.20
2023-07-20T07:03:18.701Z,16.20
2023-07-20T07:09:21.974Z,16.20
2023-07-20T07:15:23.960Z,16.30
2023-07-20T07:21:26.865Z,16.40
2023-07-20T07:27:28.787Z,16.50
2023-07-20T07:33:30.675Z,16.60
2023-07-20T07:39:35.414Z,16.50
2023-07-20T07:45:38.689Z,16.30
2023-07-20T07:51:40.691Z,16.30
2023-07-20T07:57:42.549Z,16.30
2023-07-20T08:03:44.553Z,16.30
2023-07-20T08:09:46.677Z,16.40
2023-07-20T08:15:52.823Z,16.60
2023-07-20T08:21:54.841Z,16.60
2023-07-20T08:27:56.748Z,17.20
2023-07-20T08:33:58.658Z,17.50
2023-07-20T08:40:00.564Z,17.60
2023-07-20T08:46:04.161Z,17.90
2023-07-20T08:52:06.382Z,17.90
2023-07-20T08:58:12.002Z,18.10
2023-07-20T09:04:14.476Z,17.90
2023-07-20T09:10:16.725Z,17.60
2023-07-20T09:16:19.250Z,17.40
2023-07-20T09:22:21.120Z,17.50
2023-07-20T09:28:23.032Z,18.00
2023-07-20T09:59:00.765Z,21.00
2023-07-20T10:05:05.441Z,20.10
2023-07-20T10:11:09.735Z,19.30
2023-07-20T10:17:14.360Z,19.70
2023-07-20T10:23:16.394Z,20.10
2023-07-20T10:29:18.909Z,20.70
2023-07-20T10:35:20.804Z,21.40
2023-07-20T10:41:28.875Z,21.90
2023-07-20T10:47:47.651Z,22.20
2023-07-20T10:53:50.733Z,21.80
2023-07-20T10:59:52.945Z,21.50
2023-07-20T11:05:55.357Z,21.00
2023-07-20T11:12:11.395Z,21.10
2023-07-20T11:18:14.260Z,21.80
2023-07-20T11:24:16.199Z,21.70
2023-07-20T11:30:19.315Z,22.20
2023-07-20T11:48:31.416Z,23.60
2023-07-20T11:54:34.947Z,23.80
2023-07-20T12:00:40.630Z,22.90
2023-07-20T12:06:42.576Z,23.10
2023-07-20T12:12:46.473Z,23.80
2023-07-20T12:18:48.457Z,23.80
2023-07-20T12:24:54.151Z,23.10
2023-07-20T12:30:59.055Z,23.00
2023-07-20T12:37:04.671Z,23.00
2023-07-20T12:43:07.842Z,23.60
2023-07-20T12:49:09.718Z,24.00
2023-07-20T12:55:11.646Z,24.20
2023-07-20T13:01:13.509Z,24.70
2023-07-20T13:13:21.106Z,25.30
2023-07-20T13:19:23.415Z,24.50
2023-07-20T13:25:26.333Z,24.70
2023-07-20T13:31:29.089Z,24.70
2023-07-20T13:37:31.254Z,24.70
2023-07-20T13:43:33.162Z,25.00
2023-07-20T13:49:37.145Z,25.10
2023-07-20T14:03:19.542Z,25.10
2023-07-20T14:08:16.426Z,25.30
2023-07-20T14:14:18.408Z,25.20
2023-07-20T14:20:22.648Z,25.30
2023-07-20T14:26:24.913Z,25.50
2023-07-20T14:32:27.453Z,25.60
2023-07-20T14:38:32.833Z,25.60
2023-07-20T14:44:34.749Z,25.80
2023-07-20T14:50:36.720Z,25.40
2023-07-20T14:56:40.751Z,25.10
2023-07-20T15:02:43.177Z,25.30
2023-07-20T15:08:45.136Z,25.50
2023-07-20T15:15:04.768Z,24.70
2023-07-20T15:21:06.635Z,24.20
2023-07-20T15:27:09.229Z,24.60
2023-07-20T15:33:11.173Z,24.20
2023-07-20T15:39:13.176Z,24.70
2023-07-20T15:45:15.160Z,25.20
2023-07-20T15:51:17.114Z,25.40
2023-07-20T15:57:18.981Z,25.70
2023-07-20T16:03:20.949Z,26.10
2023-07-20T16:09:23.745Z,26.40
2023-07-20T16:21:33.412Z,24.70
2023-07-20T16:27:35.650Z,23.90
2023-07-20T16:33:45.670Z,25.40
2023-07-20T16:39:52.817Z,26.00
2023-07-20T16:46:01.045Z,24.90
2023-07-20T16:52:03.171Z,24.00
2023-07-20T16:58:05.055Z,23.40
2023-07-20T17:04:06.968Z,23.40
2023-07-20T17:10:10.046Z,25.10
2023-07-20T17:16:12.099Z,24.80
2023-07-20T17:22:14.284Z,24.60
2023-07-20T17:34:22.434Z,24.20
2023-07-20T17:52:34.389Z,22.80
2023-07-20T17:58:36.312Z,22.00
2023-07-20T18:04:38.538Z,21.70
2023-07-20T18:10:40.837Z,21.40
2023-07-20T18:16:43.286Z,21.10
2023-07-20T18:22:45.266Z,20.90
2023-07-20T18:28:47.169Z,20.70
2023-07-20T18:34:49.130Z,20.50
2023-07-20T18:40:51.216Z,20.30
2023-07-20T18:46:53.141Z,20.20
2023-07-20T18:52:58.063Z,19.90
2023-07-20T18:59:00.386Z,19.40
2023-07-20T19:05:02.438Z,19.20
2023-07-20T19:17:09.829Z,18.30
2023-07-20T19:23:11.782Z,17.80
2023-07-20T19:29:13.709Z,17.40
2023-07-20T19:35:15.698Z,17.00
2023-07-20T19:41:17.564Z,16.70
2023-07-20T19:47:19.791Z,16.50
2023-07-20T19:59:27.190Z,15.90
2023-07-20T20:05:29.704Z,15.70
2023-07-20T20:11:31.619Z,15.40
2023-07-20T20:17:34.620Z,15.20
2023-07-20T20:23:38.589Z,15.00
2023-07-20T20:29:40.515Z,14.90
2023-07-20T20:35:43.427Z,14.80
2023-07-20T20:41:45.470Z,14.70
2023-07-20T20:47:47.443Z,14.60
2023-07-20T20:53:49.359Z,14.50
2023-07-20T20:59:51.422Z,14.40
2023-07-20T21:05:53.384Z,14.40
2023-07-20T21:11:55.360Z,14.20
2023-07-20T21:17:57.300Z,14.10
2023-07-20T21:23:59.201Z,14.00
2023-07-20T21:30:01.834Z,14.00
2023-07-20T21:36:06.386Z,13.90
2023-07-20T21:42:08.577Z,13.70
2023-07-20T21:48:10.489Z,13.60
2023-07-20T21:54:12.524Z,13.50
2023-07-20T22:00:15.099Z,13.40
2023-07-20T22:06:17.014Z,13.30
2023-07-20T22:12:18.937Z,13.30
2023-07-20T22:18:35.232Z,13.20
2023-07-20T22:33:15.537Z,13.30
2023-07-20T22:39:17.452Z,13.30
2023-07-20T22:45:19.342Z,13.20
2023-07-20T22:51:36.560Z,13.10
2023-07-20T22:57:38.495Z,13.00
2023-07-20T23:03:41.939Z,12.90
2023-07-20T23:09:47.343Z,12.90
2023-07-20T23:15:49.426Z,12.90
2023-07-20T23:21:51.360Z,13.00
2023-07-20T23:27:53.411Z,13.00
2023-07-20T23:33:55.424Z,13.00
2023-07-20T23:39:57.356Z,13.00
2023-07-20T23:46:02.199Z,13.10
2023-07-20T23:52:08.114Z,13.20
2023-07-20T23:58:11.534Z,13.30
